sensor_id;sensor_type;location;lat;lon;timestamp;pressure;altitude;pressure_sealevel;temperature;humidity
85386;BME280;75792;42.686;23.298;2024-02-16T00:01:30;95259.09;;;2.47;70.82
85386;BME280;75792;42.686;23.298;2024-02-16T00:03:56;95253.81;;;2.42;71.45
85386;BME280;75792;42.686;23.298;2024-02-16T00:06:21;95249.22;;;2.32;71.25
85386;BME280;75792;42.686;23.298;2024-02-16T00:08:47;95253.66;;;2.32;70.80
85386;BME280;75792;42.686;23.298;2024-02-16T00:11:13;95253.44;;;2.22;69.77
85386;BME280;75792;42.686;23.298;2024-02-16T00:13:38;95252.16;;;2.07;71.44
85386;BME280;75792;42.686;23.298;2024-02-16T00:16:04;95254.25;;;1.93;71.08
85386;BME280;75792;42.686;23.298;2024-02-16T00:18:29;95253.78;;;1.85;71.48
85386;BME280;75792;42.686;23.298;2024-02-16T00:20:54;95261.81;;;1.83;72.56
85386;BME280;75792;42.686;23.298;2024-02-16T00:23:20;95260.59;;;1.86;72.74
85386;BME280;75792;42.686;23.298;2024-02-16T00:25:47;95259.66;;;1.92;71.79
85386;BME280;75792;42.686;23.298;2024-02-16T00:28:13;95258.31;;;1.89;71.78
85386;BME280;75792;42.686;23.298;2024-02-16T00:30:38;95258.53;;;1.88;71.92
85386;BME280;75792;42.686;23.298;2024-02-16T00:33:04;95261.22;;;1.93;71.13
85386;BME280;75792;42.686;23.298;2024-02-16T00:35:29;95258.09;;;1.91;71.70
85386;BME280;75792;42.686;23.298;2024-02-16T00:37:58;95264.53;;;1.88;71.71
85386;BME280;75792;42.686;23.298;2024-02-16T00:40:24;95258.78;;;1.86;72.40
85386;BME280;75792;42.686;23.298;2024-02-16T00:42:49;95262.16;;;1.87;72.08
85386;BME280;75792;42.686;23.298;2024-02-16T00:45:14;95264.44;;;1.71;72.13
85386;BME280;75792;42.686;23.298;2024-02-16T00:47:40;95255.44;;;1.62;72.58
85386;BME280;75792;42.686;23.298;2024-02-16T00:50:05;95253.53;;;1.69;73.02
85386;BME280;75792;42.686;23.298;2024-02-16T00:52:34;95265.22;;;1.72;72.94
85386;BME280;75792;42.686;23.298;2024-02-16T00:54:59;95261.94;;;1.76;71.93
85386;BME280;75792;42.686;23.298;2024-02-16T00:57:24;95258.44;;;1.83;72.72
85386;BME280;75792;42.686;23.298;2024-02-16T00:59:50;95260.59;;;1.86;71.41
85386;BME280;75792;42.686;23.298;2024-02-16T01:02:15;95262.59;;;1.84;71.96
85386;BME280;75792;42.686;23.298;2024-02-16T01:04:42;95255.50;;;1.91;71.95
85386;BME280;75792;42.686;23.298;2024-02-16T01:07:07;95253.44;;;1.93;72.73
85386;BME280;75792;42.686;23.298;2024-02-16T01:09:32;95260.78;;;1.96;72.13
85386;BME280;75792;42.686;23.298;2024-02-16T01:11:58;95258.41;;;1.94;72.65
85386;BME280;75792;42.686;23.298;2024-02-16T01:14:23;95251.59;;;2.05;71.03
85386;BME280;75792;42.686;23.298;2024-02-16T01:16:49;95256.13;;;1.98;72.13
85386;BME280;75792;42.686;23.298;2024-02-16T01:19:14;95249.00;;;2.05;72.88
85386;BME280;75792;42.686;23.298;2024-02-16T01:21:39;95258.44;;;2.11;71.75
85386;BME280;75792;42.686;23.298;2024-02-16T01:24:06;95252.72;;;2.09;71.68
85386;BME280;75792;42.686;23.298;2024-02-16T01:26:32;95232.31;;;2.01;70.89
85386;BME280;75792;42.686;23.298;2024-02-16T01:28:58;95252.81;;;2.14;71.93
85386;BME280;75792;42.686;23.298;2024-02-16T01:31:23;95248.72;;;2.18;70.64
85386;BME280;75792;42.686;23.298;2024-02-16T01:33:49;95234.88;;;2.13;71.63
85386;BME280;75792;42.686;23.298;2024-02-16T01:36:14;95237.88;;;2.22;71.43
85386;BME280;75792;42.686;23.298;2024-02-16T01:38:39;95240.56;;;2.27;69.83
85386;BME280;75792;42.686;23.298;2024-02-16T01:41:05;95241.34;;;2.27;69.22
85386;BME280;75792;42.686;23.298;2024-02-16T01:43:32;95235.63;;;2.25;70.28
85386;BME280;75792;42.686;23.298;2024-02-16T01:45:58;95246.69;;;2.20;71.15
85386;BME280;75792;42.686;23.298;2024-02-16T01:48:25;95238.91;;;2.20;70.27
85386;BME280;75792;42.686;23.298;2024-02-16T01:50:51;95237.78;;;2.16;71.26
85386;BME280;75792;42.686;23.298;2024-02-16T01:53:17;95225.28;;;2.13;70.43
85386;BME280;75792;42.686;23.298;2024-02-16T01:55:45;95229.09;;;2.23;70.51
85386;BME280;75792;42.686;23.298;2024-02-16T01:58:11;95225.16;;;2.20;70.27
85386;BME280;75792;42.686;23.298;2024-02-16T02:00:37;95236.31;;;2.20;69.39
85386;BME280;75792;42.686;23.298;2024-02-16T02:03:03;95216.50;;;2.14;69.51
85386;BME280;75792;42.686;23.298;2024-02-16T02:05:28;95221.84;;;2.25;69.95
85386;BME280;75792;42.686;23.298;2024-02-16T02:07:54;95232.22;;;2.25;69.86
85386;BME280;75792;42.686;23.298;2024-02-16T02:10:19;95234.91;;;2.30;68.87
85386;BME280;75792;42.686;23.298;2024-02-16T02:12:45;95234.22;;;2.34;69.09
85386;BME280;75792;42.686;23.298;2024-02-16T02:15:10;95237.78;;;2.45;67.58
85386;BME280;75792;42.686;23.298;2024-02-16T02:17:37;95242.19;;;2.45;69.28
85386;BME280;75792;42.686;23.298;2024-02-16T02:20:02;95233.06;;;2.42;68.43
85386;BME280;75792;42.686;23.298;2024-02-16T02:22:35;95231.94;;;2.38;69.34
85386;BME280;75792;42.686;23.298;2024-02-16T02:25:01;95232.31;;;2.30;68.73
85386;BME280;75792;42.686;23.298;2024-02-16T02:27:26;95239.00;;;2.26;68.93
85386;BME280;75792;42.686;23.298;2024-02-16T02:29:52;95241.03;;;2.24;68.89
85386;BME280;75792;42.686;23.298;2024-02-16T02:32:17;95232.88;;;2.03;69.98
85386;BME280;75792;42.686;23.298;2024-02-16T02:34:42;95228.06;;;1.95;70.33
85386;BME280;75792;42.686;23.298;2024-02-16T02:37:08;95237.06;;;2.04;71.25
85386;BME280;75792;42.686;23.298;2024-02-16T02:39:34;95240.28;;;2.11;70.12
85386;BME280;75792;42.686;23.298;2024-02-16T02:41:59;95235.16;;;2.00;70.85
85386;BME280;75792;42.686;23.298;2024-02-16T02:44:25;95238.44;;;1.95;71.42
85386;BME280;75792;42.686;23.298;2024-02-16T02:46:51;95238.03;;;1.74;72.98
85386;BME280;75792;42.686;23.298;2024-02-16T02:49:17;95239.84;;;1.74;71.91
85386;BME280;75792;42.686;23.298;2024-02-16T02:51:42;95233.97;;;1.79;71.35
85386;BME280;75792;42.686;23.298;2024-02-16T02:54:08;95241.66;;;1.73;72.29
85386;BME280;75792;42.686;23.298;2024-02-16T02:56:33;95223.75;;;1.60;72.95
85386;BME280;75792;42.686;23.298;2024-02-16T02:58:59;95222.34;;;1.41;73.28
85386;BME280;75792;42.686;23.298;2024-02-16T03:01:24;95236.06;;;1.53;73.72
85386;BME280;75792;42.686;23.298;2024-02-16T03:03:50;95212.50;;;1.43;72.75
85386;BME280;75792;42.686;23.298;2024-02-16T03:06:19;95240.44;;;1.64;72.71
85386;BME280;75792;42.686;23.298;2024-02-16T03:08:45;95235.78;;;1.66;72.55
85386;BME280;75792;42.686;23.298;2024-02-16T03:11:10;95238.03;;;1.74;73.69
85386;BME280;75792;42.686;23.298;2024-02-16T03:13:36;95233.03;;;1.85;72.84
85386;BME280;75792;42.686;23.298;2024-02-16T03:16:02;95233.31;;;1.71;71.22
85386;BME280;75792;42.686;23.298;2024-02-16T03:18:31;95240.66;;;1.63;72.29
85386;BME280;75792;42.686;23.298;2024-02-16T03:20:57;95238.63;;;1.53;72.40
85386;BME280;75792;42.686;23.298;2024-02-16T03:23:23;95240.78;;;1.56;72.50
85386;BME280;75792;42.686;23.298;2024-02-16T03:25:49;95238.63;;;1.65;71.38
85386;BME280;75792;42.686;23.298;2024-02-16T03:28:14;95234.22;;;1.65;71.97
85386;BME280;75792;42.686;23.298;2024-02-16T03:30:41;95237.97;;;1.69;71.33
85386;BME280;75792;42.686;23.298;2024-02-16T03:33:07;95242.78;;;1.78;71.55
85386;BME280;75792;42.686;23.298;2024-02-16T03:35:33;95240.28;;;1.83;71.80
85386;BME280;75792;42.686;23.298;2024-02-16T03:37:58;95242.53;;;1.79;71.52
85386;BME280;75792;42.686;23.298;2024-02-16T03:40:24;95250.13;;;1.69;71.49
85386;BME280;75792;42.686;23.298;2024-02-16T03:42:50;95242.56;;;1.67;72.70
85386;BME280;75792;42.686;23.298;2024-02-16T03:45:16;95252.38;;;1.65;71.96
85386;BME280;75792;42.686;23.298;2024-02-16T03:47:41;95244.28;;;1.62;71.75
85386;BME280;75792;42.686;23.298;2024-02-16T03:50:07;95239.22;;;1.55;71.98
85386;BME280;75792;42.686;23.298;2024-02-16T03:52:33;95239.91;;;1.39;72.63
85386;BME280;75792;42.686;23.298;2024-02-16T03:54:58;95242.50;;;1.39;73.11
85386;BME280;75792;42.686;23.298;2024-02-16T03:57:24;95242.41;;;1.34;73.52
85386;BME280;75792;42.686;23.298;2024-02-16T03:59:50;95239.81;;;1.34;73.96
85386;BME280;75792;42.686;23.298;2024-02-16T04:02:15;95239.22;;;1.31;73.65
85386;BME280;75792;42.686;23.298;2024-02-16T04:04:41;95231.81;;;1.23;74.01
85386;BME280;75792;42.686;23.298;2024-02-16T04:07:06;95241.50;;;1.16;74.21
85386;BME280;75792;42.686;23.298;2024-02-16T04:09:32;95243.53;;;1.14;74.79
85386;BME280;75792;42.686;23.298;2024-02-16T04:11:58;95242.41;;;1.10;74.97
85386;BME280;75792;42.686;23.298;2024-02-16T04:14:23;95229.31;;;1.05;74.91
85386;BME280;75792;42.686;23.298;2024-02-16T04:16:49;95236.09;;;1.06;74.41
85386;BME280;75792;42.686;23.298;2024-02-16T04:19:14;95236.44;;;1.09;74.75
85386;BME280;75792;42.686;23.298;2024-02-16T04:21:39;95224.16;;;1.05;74.59
85386;BME280;75792;42.686;23.298;2024-02-16T04:24:05;95235.88;;;1.19;74.58
85386;BME280;75792;42.686;23.298;2024-02-16T04:26:31;95234.28;;;1.18;74.31
85386;BME280;75792;42.686;23.298;2024-02-16T04:28:56;95234.41;;;1.23;74.55
85386;BME280;75792;42.686;23.298;2024-02-16T04:31:21;95239.69;;;1.28;74.99
85386;BME280;75792;42.686;23.298;2024-02-16T04:33:47;95246.47;;;1.18;75.05
85386;BME280;75792;42.686;23.298;2024-02-16T04:36:12;95239.00;;;1.21;75.47
85386;BME280;75792;42.686;23.298;2024-02-16T04:38:37;95234.75;;;1.15;75.39
85386;BME280;75792;42.686;23.298;2024-02-16T04:41:06;95246.25;;;1.19;75.81
85386;BME280;75792;42.686;23.298;2024-02-16T04:43:32;95251.84;;;1.16;74.95
85386;BME280;75792;42.686;23.298;2024-02-16T04:45:57;95246.66;;;1.16;75.27
85386;BME280;75792;42.686;23.298;2024-02-16T04:48:23;95238.78;;;1.11;75.69
85386;BME280;75792;42.686;23.298;2024-02-16T04:50:48;95254.03;;;1.19;75.55
85386;BME280;75792;42.686;23.298;2024-02-16T04:53:13;95244.78;;;1.12;75.86
85386;BME280;75792;42.686;23.298;2024-02-16T04:55:39;95250.75;;;1.12;75.17
85386;BME280;75792;42.686;23.298;2024-02-16T04:58:04;95256.25;;;1.16;74.70
85386;BME280;75792;42.686;23.298;2024-02-16T05:00:34;95253.09;;;1.14;75.21
85386;BME280;75792;42.686;23.298;2024-02-16T05:02:59;95255.16;;;1.12;75.20
85386;BME280;75792;42.686;23.298;2024-02-16T05:05:25;95257.50;;;1.13;75.03
85386;BME280;75792;42.686;23.298;2024-02-16T05:07:50;95261.56;;;1.09;75.34
85386;BME280;75792;42.686;23.298;2024-02-16T05:10:16;95254.66;;;1.03;75.39
85386;BME280;75792;42.686;23.298;2024-02-16T05:12:42;95262.88;;;1.00;75.92
85386;BME280;75792;42.686;23.298;2024-02-16T05:15:07;95267.38;;;0.93;75.52
85386;BME280;75792;42.686;23.298;2024-02-16T05:17:34;95268.53;;;0.97;75.65
85386;BME280;75792;42.686;23.298;2024-02-16T05:20:00;95257.03;;;0.93;76.02
85386;BME280;75792;42.686;23.298;2024-02-16T05:22:25;95267.50;;;0.98;76.69
85386;BME280;75792;42.686;23.298;2024-02-16T05:24:50;95277.97;;;1.03;76.40
85386;BME280;75792;42.686;23.298;2024-02-16T05:27:16;95275.28;;;0.98;76.12
85386;BME280;75792;42.686;23.298;2024-02-16T05:29:41;95276.88;;;0.99;75.77
85386;BME280;75792;42.686;23.298;2024-02-16T05:32:07;95287.81;;;1.01;76.44
85386;BME280;75792;42.686;23.298;2024-02-16T05:34:32;95293.84;;;0.95;76.31
85386;BME280;75792;42.686;23.298;2024-02-16T05:37:06;95288.81;;;1.00;76.08
85386;BME280;75792;42.686;23.298;2024-02-16T05:39:36;95288.09;;;0.93;75.62
85386;BME280;75792;42.686;23.298;2024-02-16T05:42:18;95298.84;;;1.08;75.23
85386;BME280;75792;42.686;23.298;2024-02-16T05:44:43;95299.41;;;1.10;75.23
85386;BME280;75792;42.686;23.298;2024-02-16T05:47:09;95302.13;;;1.15;74.95
85386;BME280;75792;42.686;23.298;2024-02-16T05:49:34;95295.38;;;1.14;75.07
85386;BME280;75792;42.686;23.298;2024-02-16T05:52:00;95303.25;;;1.19;74.91
85386;BME280;75792;42.686;23.298;2024-02-16T05:54:43;95296.03;;;1.21;74.14
85386;BME280;75792;42.686;23.298;2024-02-16T05:57:08;95300.34;;;1.27;74.29
85386;BME280;75792;42.686;23.298;2024-02-16T05:59:34;95300.22;;;1.22;74.38
85386;BME280;75792;42.686;23.298;2024-02-16T06:02:00;95299.53;;;1.15;74.45
85386;BME280;75792;42.686;23.298;2024-02-16T06:04:25;95288.38;;;1.26;74.30
85386;BME280;75792;42.686;23.298;2024-02-16T06:06:51;95291.19;;;1.25;73.89
85386;BME280;75792;42.686;23.298;2024-02-16T06:09:19;95302.47;;;1.30;73.63
85386;BME280;75792;42.686;23.298;2024-02-16T06:11:44;95301.63;;;0.95;75.57
85386;BME280;75792;42.686;23.298;2024-02-16T06:14:09;95300.97;;;0.87;75.77
85386;BME280;75792;42.686;23.298;2024-02-16T06:16:35;95305.72;;;1.14;75.06
85386;BME280;75792;42.686;23.298;2024-02-16T06:19:00;95293.09;;;1.29;74.15
85386;BME280;75792;42.686;23.298;2024-02-16T06:21:26;95302.34;;;1.49;74.10
85386;BME280;75792;42.686;23.298;2024-02-16T06:23:51;95309.13;;;1.62;74.17
85386;BME280;75792;42.686;23.298;2024-02-16T06:26:16;95309.75;;;1.81;72.71
85386;BME280;75792;42.686;23.298;2024-02-16T06:28:42;95308.28;;;1.85;73.08
85386;BME280;75792;42.686;23.298;2024-02-16T06:31:07;95306.00;;;2.00;72.71
85386;BME280;75792;42.686;23.298;2024-02-16T06:33:32;95299.97;;;2.11;71.55
85386;BME280;75792;42.686;23.298;2024-02-16T06:35:58;95299.19;;;2.23;71.82
85386;BME280;75792;42.686;23.298;2024-02-16T06:38:23;95287.75;;;2.24;70.72
85386;BME280;75792;42.686;23.298;2024-02-16T06:40:49;95310.81;;;2.49;71.22
85386;BME280;75792;42.686;23.298;2024-02-16T06:43:14;95288.63;;;2.41;70.21
85386;BME280;75792;42.686;23.298;2024-02-16T06:45:40;95303.44;;;2.57;70.39
85386;BME280;75792;42.686;23.298;2024-02-16T06:48:06;95301.13;;;2.73;69.68
85386;BME280;75792;42.686;23.298;2024-02-16T06:50:31;95306.16;;;2.79;67.90
85386;BME280;75792;42.686;23.298;2024-02-16T06:52:56;95304.91;;;2.82;67.43
85386;BME280;75792;42.686;23.298;2024-02-16T06:55:22;95309.91;;;2.72;67.90
85386;BME280;75792;42.686;23.298;2024-02-16T06:57:47;95311.75;;;2.88;69.48
85386;BME280;75792;42.686;23.298;2024-02-16T07:00:13;95315.72;;;3.07;69.11
85386;BME280;75792;42.686;23.298;2024-02-16T07:02:40;95313.59;;;3.04;66.94
85386;BME280;75792;42.686;23.298;2024-02-16T07:05:07;95309.16;;;3.22;67.00
85386;BME280;75792;42.686;23.298;2024-02-16T07:07:33;95309.31;;;3.32;66.45
85386;BME280;75792;42.686;23.298;2024-02-16T07:10:01;95305.38;;;3.46;65.53
85386;BME280;75792;42.686;23.298;2024-02-16T07:12:26;95308.53;;;3.48;64.33
85386;BME280;75792;42.686;23.298;2024-02-16T07:14:52;95309.97;;;3.39;64.05
85386;BME280;75792;42.686;23.298;2024-02-16T07:17:17;95300.56;;;3.38;64.29
85386;BME280;75792;42.686;23.298;2024-02-16T07:19:42;95310.13;;;3.49;63.98
85386;BME280;75792;42.686;23.298;2024-02-16T07:22:08;95317.16;;;3.71;63.93
85386;BME280;75792;42.686;23.298;2024-02-16T07:24:33;95307.25;;;3.68;64.45
85386;BME280;75792;42.686;23.298;2024-02-16T07:26:59;95287.16;;;3.85;63.60
85386;BME280;75792;42.686;23.298;2024-02-16T07:29:24;95300.50;;;4.11;63.41
85386;BME280;75792;42.686;23.298;2024-02-16T07:31:50;95295.94;;;4.23;62.00
85386;BME280;75792;42.686;23.298;2024-02-16T07:34:17;95301.81;;;4.35;61.50
85386;BME280;75792;42.686;23.298;2024-02-16T07:36:42;95307.69;;;4.48;61.52
85386;BME280;75792;42.686;23.298;2024-02-16T07:39:08;95299.66;;;4.54;62.28
85386;BME280;75792;42.686;23.298;2024-02-16T07:41:37;95296.38;;;4.64;61.30
85386;BME280;75792;42.686;23.298;2024-02-16T07:44:03;95312.81;;;4.97;60.85
85386;BME280;75792;42.686;23.298;2024-02-16T07:46:28;95310.34;;;5.12;60.50
85386;BME280;75792;42.686;23.298;2024-02-16T07:48:53;95302.16;;;5.31;59.81
85386;BME280;75792;42.686;23.298;2024-02-16T07:51:20;95312.16;;;5.44;58.86
85386;BME280;75792;42.686;23.298;2024-02-16T07:53:45;95312.72;;;5.51;58.35
85386;BME280;75792;42.686;23.298;2024-02-16T07:56:12;95315.72;;;5.70;58.25
85386;BME280;75792;42.686;23.298;2024-02-16T07:58:37;95320.75;;;5.87;57.67
85386;BME280;75792;42.686;23.298;2024-02-16T08:01:02;95314.53;;;5.88;56.88
85386;BME280;75792;42.686;23.298;2024-02-16T08:03:28;95320.84;;;5.97;57.36
85386;BME280;75792;42.686;23.298;2024-02-16T08:05:55;95313.97;;;5.86;56.64
85386;BME280;75792;42.686;23.298;2024-02-16T08:08:22;95322.28;;;5.78;57.05
85386;BME280;75792;42.686;23.298;2024-02-16T08:10:48;95328.56;;;5.82;57.25
85386;BME280;75792;42.686;23.298;2024-02-16T08:13:13;95319.13;;;5.76;57.93
85386;BME280;75792;42.686;23.298;2024-02-16T08:15:39;95318.19;;;5.92;57.45
85386;BME280;75792;42.686;23.298;2024-02-16T08:18:04;95324.50;;;5.96;56.56
85386;BME280;75792;42.686;23.298;2024-02-16T08:20:30;95321.28;;;5.84;56.45
85386;BME280;75792;42.686;23.298;2024-02-16T08:22:56;95323.91;;;5.89;57.32
85386;BME280;75792;42.686;23.298;2024-02-16T08:25:21;95320.88;;;6.02;56.85
85386;BME280;75792;42.686;23.298;2024-02-16T08:27:48;95326.69;;;6.14;56.38
85386;BME280;75792;42.686;23.298;2024-02-16T08:30:14;95324.38;;;6.23;56.50
85386;BME280;75792;42.686;23.298;2024-02-16T08:32:40;95320.53;;;6.41;55.88
85386;BME280;75792;42.686;23.298;2024-02-16T08:35:05;95322.66;;;6.54;55.50
85386;BME280;75792;42.686;23.298;2024-02-16T08:37:31;95323.91;;;6.42;55.62
85386;BME280;75792;42.686;23.298;2024-02-16T08:39:57;95317.47;;;6.70;54.75
85386;BME280;75792;42.686;23.298;2024-02-16T08:42:22;95314.28;;;6.57;55.12
85386;BME280;75792;42.686;23.298;2024-02-16T08:44:49;95317.94;;;6.46;55.51
85386;BME280;75792;42.686;23.298;2024-02-16T08:47:14;95322.34;;;6.51;55.23
85386;BME280;75792;42.686;23.298;2024-02-16T08:49:40;95315.88;;;6.64;55.34
85386;BME280;75792;42.686;23.298;2024-02-16T08:52:07;95321.69;;;6.86;55.15
85386;BME280;75792;42.686;23.298;2024-02-16T08:54:33;95322.22;;;7.03;55.30
85386;BME280;75792;42.686;23.298;2024-02-16T08:56:59;95319.06;;;7.12;54.15
85386;BME280;75792;42.686;23.298;2024-02-16T08:59:25;95323.28;;;7.08;53.43
85386;BME280;75792;42.686;23.298;2024-02-16T09:01:51;95321.44;;;7.23;53.63
85386;BME280;75792;42.686;23.298;2024-02-16T09:04:17;95329.56;;;7.27;53.49
85386;BME280;75792;42.686;23.298;2024-02-16T09:06:42;95326.41;;;7.51;52.92
85386;BME280;75792;42.686;23.298;2024-02-16T09:09:08;95328.50;;;7.48;52.57
85386;BME280;75792;42.686;23.298;2024-02-16T09:11:33;95325.09;;;7.53;53.16
85386;BME280;75792;42.686;23.298;2024-02-16T09:14:01;95329.53;;;7.73;52.24
85386;BME280;75792;42.686;23.298;2024-02-16T09:16:26;95327.66;;;7.89;52.05
85386;BME280;75792;42.686;23.298;2024-02-16T09:18:52;95333.13;;;8.08;51.19
85386;BME280;75792;42.686;23.298;2024-02-16T09:21:17;95321.84;;;8.12;51.36
85386;BME280;75792;42.686;23.298;2024-02-16T09:23:43;95327.28;;;8.31;50.23
85386;BME280;75792;42.686;23.298;2024-02-16T09:26:08;95325.19;;;8.28;48.99
85386;BME280;75792;42.686;23.298;2024-02-16T09:28:40;95324.44;;;8.18;49.55
85386;BME280;75792;42.686;23.298;2024-02-16T09:31:09;95324.38;;;8.28;49.79
85386;BME280;75792;42.686;23.298;2024-02-16T09:33:34;95314.72;;;8.28;50.61
85386;BME280;75792;42.686;23.298;2024-02-16T09:36:02;95323.25;;;8.54;50.73
85386;BME280;75792;42.686;23.298;2024-02-16T09:38:30;95320.81;;;8.73;49.47
85386;BME280;75792;42.686;23.298;2024-02-16T09:40:55;95321.34;;;8.70;49.11
85386;BME280;75792;42.686;23.298;2024-02-16T09:43:28;95324.41;;;8.88;49.49
85386;BME280;75792;42.686;23.298;2024-02-16T09:45:57;95321.09;;;9.11;48.54
85386;BME280;75792;42.686;23.298;2024-02-16T09:48:26;95328.47;;;9.09;47.15
85386;BME280;75792;42.686;23.298;2024-02-16T09:50:56;95325.34;;;9.02;48.18
85386;BME280;75792;42.686;23.298;2024-02-16T09:53:25;95324.94;;;8.90;48.46
85386;BME280;75792;42.686;23.298;2024-02-16T09:55:50;95325.88;;;9.04;49.37
85386;BME280;75792;42.686;23.298;2024-02-16T09:58:17;95310.53;;;9.21;48.72
85386;BME280;75792;42.686;23.298;2024-02-16T10:00:54;95313.56;;;9.34;47.95
85386;BME280;75792;42.686;23.298;2024-02-16T10:03:30;95301.03;;;9.25;47.56
85386;BME280;75792;42.686;23.298;2024-02-16T10:06:07;95316.78;;;9.25;48.90
85386;BME280;75792;42.686;23.298;2024-02-16T10:08:34;95304.31;;;9.41;48.04
85386;BME280;75792;42.686;23.298;2024-02-16T10:11:04;95302.44;;;9.47;46.86
85386;BME280;75792;42.686;23.298;2024-02-16T10:13:33;95300.78;;;9.56;48.21
85386;BME280;75792;42.686;23.298;2024-02-16T10:16:09;95290.63;;;9.74;47.48
85386;BME280;75792;42.686;23.298;2024-02-16T10:18:38;95286.38;;;9.78;46.82
85386;BME280;75792;42.686;23.298;2024-02-16T10:21:04;95292.75;;;9.72;46.50
85386;BME280;75792;42.686;23.298;2024-02-16T10:23:30;95292.97;;;9.75;47.12
85386;BME280;75792;42.686;23.298;2024-02-16T10:25:56;95277.78;;;9.96;47.20
85386;BME280;75792;42.686;23.298;2024-02-16T10:28:24;95272.94;;;10.08;47.67
85386;BME280;75792;42.686;23.298;2024-02-16T10:30:57;95279.69;;;10.15;46.00
85386;BME280;75792;42.686;23.298;2024-02-16T10:33:23;95274.41;;;10.15;46.42
85386;BME280;75792;42.686;23.298;2024-02-16T10:35:49;95272.19;;;10.27;46.79
85386;BME280;75792;42.686;23.298;2024-02-16T10:38:15;95274.63;;;10.42;46.46
85386;BME280;75792;42.686;23.298;2024-02-16T10:40:42;95268.50;;;10.28;45.21
85386;BME280;75792;42.686;23.298;2024-02-16T10:43:08;95265.81;;;10.33;46.39
85386;BME280;75792;42.686;23.298;2024-02-16T10:45:38;95266.94;;;10.27;45.04
85386;BME280;75792;42.686;23.298;2024-02-16T10:48:05;95250.72;;;9.96;46.11
85386;BME280;75792;42.686;23.298;2024-02-16T10:50:32;95267.03;;;10.17;46.96
85386;BME280;75792;42.686;23.298;2024-02-16T10:53:04;95258.31;;;10.45;45.70
85386;BME280;75792;42.686;23.298;2024-02-16T10:55:34;95261.63;;;10.32;45.55
85386;BME280;75792;42.686;23.298;2024-02-16T10:58:00;95253.59;;;10.42;46.26
85386;BME280;75792;42.686;23.298;2024-02-16T11:00:25;95233.41;;;10.56;46.56
85386;BME280;75792;42.686;23.298;2024-02-16T11:02:58;95243.16;;;10.75;45.21
85386;BME280;75792;42.686;23.298;2024-02-16T11:08:12;95247.22;;;10.48;45.72
85386;BME280;75792;42.686;23.298;2024-02-16T11:10:38;95247.19;;;10.86;45.64
85386;BME280;75792;42.686;23.298;2024-02-16T11:13:04;95249.59;;;11.02;44.32
85386;BME280;75792;42.686;23.298;2024-02-16T11:15:33;95240.19;;;10.95;44.05
85386;BME280;75792;42.686;23.298;2024-02-16T11:18:03;95234.09;;;11.14;44.44
85386;BME280;75792;42.686;23.298;2024-02-16T11:20:28;95238.00;;;11.35;42.86
85386;BME280;75792;42.686;23.298;2024-02-16T11:23:13;95236.25;;;11.44;43.49
85386;BME280;75792;42.686;23.298;2024-02-16T11:25:49;95225.97;;;11.29;42.56
85386;BME280;75792;42.686;23.298;2024-02-16T11:28:15;95228.38;;;11.12;42.90
85386;BME280;75792;42.686;23.298;2024-02-16T11:30:41;95228.81;;;11.33;43.50
85386;BME280;75792;42.686;23.298;2024-02-16T11:33:11;95229.72;;;11.56;43.06
85386;BME280;75792;42.686;23.298;2024-02-16T11:35:36;95210.22;;;11.57;42.60
85386;BME280;75792;42.686;23.298;2024-02-16T11:38:02;95224.97;;;11.85;42.47
85386;BME280;75792;42.686;23.298;2024-02-16T11:40:27;95219.88;;;12.03;41.81
85386;BME280;75792;42.686;23.298;2024-02-16T11:43:02;95224.97;;;12.13;41.58
85386;BME280;75792;42.686;23.298;2024-02-16T11:45:27;95217.34;;;12.25;41.25
85386;BME280;75792;42.686;23.298;2024-02-16T11:48:06;95215.75;;;12.24;40.93
85386;BME280;75792;42.686;23.298;2024-02-16T11:50:32;95219.50;;;12.09;41.30
85386;BME280;75792;42.686;23.298;2024-02-16T11:52:57;95219.28;;;12.34;41.53
85386;BME280;75792;42.686;23.298;2024-02-16T11:55:23;95202.75;;;12.42;40.84
85386;BME280;75792;42.686;23.298;2024-02-16T11:57:49;95211.75;;;12.63;41.43
85386;BME280;75792;42.686;23.298;2024-02-16T12:00:16;95215.00;;;12.83;41.71
85386;BME280;75792;42.686;23.298;2024-02-16T12:02:41;95203.84;;;12.86;39.70
85386;BME280;75792;42.686;23.298;2024-02-16T12:05:07;95207.09;;;12.83;41.68
85386;BME280;75792;42.686;23.298;2024-02-16T12:07:36;95208.66;;;13.06;39.99
85386;BME280;75792;42.686;23.298;2024-02-16T12:10:03;95207.66;;;13.25;39.66
85386;BME280;75792;42.686;23.298;2024-02-16T12:12:32;95200.53;;;13.56;39.55
85386;BME280;75792;42.686;23.298;2024-02-16T12:14:58;95197.78;;;13.61;38.43
85386;BME280;75792;42.686;23.298;2024-02-16T12:17:23;95198.06;;;13.60;38.02
85386;BME280;75792;42.686;23.298;2024-02-16T12:19:51;95199.06;;;13.73;38.16
85386;BME280;75792;42.686;23.298;2024-02-16T12:22:18;95200.34;;;13.84;37.15
85386;BME280;75792;42.686;23.298;2024-02-16T12:24:49;95196.94;;;13.92;36.61
85386;BME280;75792;42.686;23.298;2024-02-16T12:27:15;95180.63;;;14.07;36.20
85386;BME280;75792;42.686;23.298;2024-02-16T12:29:41;95186.09;;;14.20;36.22
85386;BME280;75792;42.686;23.298;2024-02-16T12:32:07;95182.72;;;14.45;35.94
85386;BME280;75792;42.686;23.298;2024-02-16T12:34:34;95189.56;;;14.99;35.16
85386;BME280;75792;42.686;23.298;2024-02-16T12:37:00;95189.97;;;15.27;34.73
85386;BME280;75792;42.686;23.298;2024-02-16T12:39:25;95183.63;;;15.19;33.96
85386;BME280;75792;42.686;23.298;2024-02-16T12:41:50;95185.69;;;15.52;34.48
85386;BME280;75792;42.686;23.298;2024-02-16T12:44:16;95182.91;;;16.16;34.21
85386;BME280;75792;42.686;23.298;2024-02-16T12:46:41;95177.66;;;17.25;32.11
85386;BME280;75792;42.686;23.298;2024-02-16T12:49:08;95174.84;;;19.09;28.46
85386;BME280;75792;42.686;23.298;2024-02-16T12:51:34;95181.53;;;20.81;27.06
85386;BME280;75792;42.686;23.298;2024-02-16T12:54:00;95188.09;;;21.91;24.13
85386;BME280;75792;42.686;23.298;2024-02-16T12:56:29;95180.09;;;22.45;23.44